Time,TemperatureF,DewpointF,PressureIn,WindDirection,WindDirectionDegrees,WindSpeedMPH,WindSpeedGustMPH,Humidity,HourlyPrecipIn,Conditions,Clouds,dailyrainin,SoftwareType,DateUTC
2013-09-09 00:08:00,73.0,66.9,29.92,North,0,0.0,0.0,81,0.00,,,0.00,WUHU216HW,2013-09-09 05:08:00,
2013-09-09 00:29:00,72.5,66.7,29.92,North,0,0.0,0.0,82,0.00,,,0.00,WUHU216HW,2013-09-09 05:29:00,
2013-09-09 01:54:00,70.8,66.1,29.92,North,0,0.0,0.0,86,0.00,,,0.00,WUHU216HW,2013-09-09 06:54:00,
2013-09-09 01:59:00,70.8,66.1,29.92,North,0,0.0,0.0,86,0.00,,,0.00,WUHU216HW,2013-09-09 06:59:00,
2013-09-09 03:20:00,69.4,65.0,29.91,North,0,0.0,0.0,87,0.00,,,0.00,WUHU216HW,2013-09-09 08:20:00,
2013-09-09 03:25:00,69.4,65.0,29.91,North,0,0.0,0.0,87,0.00,,,0.00,WUHU216HW,2013-09-09 08:25:00,
2013-09-09 03:50:00,69.4,65.3,29.92,North,0,0.0,0.0,87,0.00,,,0.00,WUHU216HW,2013-09-09 08:50:00,
2013-09-09 04:25:00,69.0,65.0,29.93,North,0,0.0,0.0,87,0.00,,,0.00,WUHU216HW,2013-09-09 09:25:00,
2013-09-09 04:30:00,69.0,65.0,29.93,North,0,0.0,0.0,87,0.00,,,0.00,WUHU216HW,2013-09-09 09:30:00,
2013-09-09 04:50:00,69.4,65.3,29.92,North,0,0.0,0.0,87,0.00,,,0.00,WUHU216HW,2013-09-09 09:50:00,
2013-09-09 05:20:00,69.9,66.2,29.92,North,0,0.0,0.0,88,0.00,,,0.00,WUHU216HW,2013-09-09 10:20:00,
2013-09-09 05:48:00,69.6,65.8,29.93,North,0,0.0,0.0,88,0.00,,,0.00,WUHU216HW,2013-09-09 10:48:00,
2013-09-09 06:50:00,71.2,67.4,29.93,North,0,0.0,0.0,88,0.00,,,0.00,WUHU216HW,2013-09-09 11:50:00,
2013-09-09 08:24:00,72.6,68.9,29.95,North,0,0.0,0.0,88,0.00,,,0.00,WUHU216HW,2013-09-09 13:24:00,
2013-09-09 09:35:00,77.3,70.7,29.97,North,0,0.0,0.0,80,0.00,,,0.00,WUHU216HW,2013-09-09 14:35:00,
2013-09-09 09:40:00,77.3,70.7,29.97,North,0,0.0,0.0,80,0.00,,,0.00,WUHU216HW,2013-09-09 14:40:00,
2013-09-09 10:12:00,83.1,71.4,29.97,North,0,0.0,0.0,68,0.00,,,0.00,WUHU216HW,2013-09-09 15:12:00,
2013-09-09 10:17:00,83.1,71.4,29.97,North,0,0.0,0.0,68,0.00,,,0.00,WUHU216HW,2013-09-09 15:17:00,
2013-09-09 11:34:00,88.8,68.9,29.97,North,0,0.0,0.0,52,0.00,,,0.00,WUHU216HW,2013-09-09 16:34:00,
2013-09-09 11:39:00,89.2,70.3,29.98,North,0,0.0,0.0,54,0.00,,,0.00,WUHU216HW,2013-09-09 16:39:00,
2013-09-09 11:44:00,89.2,70.3,29.98,North,0,0.0,0.0,54,0.00,,,0.00,WUHU216HW,2013-09-09 16:44:00,
2013-09-09 12:25:00,90.1,68.3,29.97,North,0,0.0,0.0,50,0.00,,,0.00,WUHU216HW,2013-09-09 17:25:00,
2013-09-09 12:35:00,88.3,68.4,29.97,North,0,0.0,0.0,52,0.00,,,0.00,WUHU216HW,2013-09-09 17:35:00,
2013-09-09 12:40:00,88.3,68.4,29.97,North,0,0.0,0.0,52,0.00,,,0.00,WUHU216HW,2013-09-09 17:40:00,
2013-09-09 13:05:00,92.1,70.8,29.97,North,0,0.0,0.0,50,0.00,,,0.00,WUHU216HW,2013-09-09 18:05:00,
2013-09-09 13:10:00,92.1,70.8,29.97,North,0,0.0,0.0,50,0.00,,,0.00,WUHU216HW,2013-09-09 18:10:00,
2013-09-09 13:25:00,89.4,74.7,29.96,North,0,0.0,0.0,62,0.00,,,0.00,WUHU216HW,2013-09-09 18:25:00,
2013-09-09 13:58:00,91.5,69.0,29.94,North,0,0.0,0.0,48,0.00,,,0.00,WUHU216HW,2013-09-09 18:58:00,
2013-09-09 14:36:00,94.2,67.5,29.92,North,0,0.0,0.0,42,0.00,,,0.00,WUHU216HW,2013-09-09 19:36:00,
2013-09-09 14:41:00,94.2,67.5,29.92,North,0,0.0,0.0,42,0.00,,,0.00,WUHU216HW,2013-09-09 19:41:00,
2013-09-09 15:34:00,91.5,67.0,29.90,North,0,0.0,0.0,45,0.00,,,0.00,WUHU216HW,2013-09-09 20:34:00,
2013-09-09 15:39:00,91.5,67.0,29.90,North,0,0.0,0.0,45,0.00,,,0.00,WUHU216HW,2013-09-09 20:39:00,
2013-09-09 16:17:00,92.8,68.2,29.90,North,0,0.0,0.0,45,0.00,,,0.00,WUHU216HW,2013-09-09 21:17:00,
2013-09-09 16:54:00,95.3,68.5,29.89,North,0,0.0,0.0,42,0.00,,,0.00,WUHU216HW,2013-09-09 21:54:00,
2013-09-09 17:10:00,89.2,69.2,29.91,North,0,0.0,0.0,52,0.00,,,0.00,WUHU216HW,2013-09-09 22:10:00,
2013-09-09 17:15:00,89.2,69.2,29.91,North,0,0.0,0.0,52,0.00,,,0.00,WUHU216HW,2013-09-09 22:15:00,
2013-09-09 17:43:00,76.8,69.8,29.92,North,0,0.0,0.0,79,0.02,,,0.02,WUHU216HW,2013-09-09 22:43:00,
2013-09-09 17:48:00,76.8,69.8,29.92,North,0,0.0,0.0,79,0.02,,,0.02,WUHU216HW,2013-09-09 22:48:00,
2013-09-09 18:21:00,75.9,69.3,29.93,North,0,0.0,0.0,80,0.02,,,0.02,WUHU216HW,2013-09-09 23:21:00,
2013-09-09 18:40:00,77.1,69.7,29.93,North,0,0.0,0.0,78,0.02,,,0.02,WUHU216HW,2013-09-09 23:40:00,
2013-09-09 18:51:00,77.1,69.3,29.93,North,0,0.0,0.0,78,0.02,,,0.02,WUHU216HW,2013-09-09 23:51:00,
2013-09-09 18:56:00,77.1,69.3,29.93,North,0,0.0,0.0,78,0.02,,,0.02,WUHU216HW,2013-09-09 23:56:00,
2013-09-09 19:10:00,77.1,70.1,29.93,North,0,0.0,0.0,79,0.02,,,0.02,WUHU216HW,2013-09-10 00:10:00,
2013-09-09 19:15:00,76.8,69.8,29.93,North,0,0.0,0.0,79,0.02,,,0.02,WUHU216HW,2013-09-10 00:15:00,
2013-09-09 19:20:00,76.8,69.8,29.93,North,0,0.0,0.0,79,0.02,,,0.02,WUHU216HW,2013-09-10 00:20:00,
2013-09-09 19:50:00,75.7,69.2,29.92,North,0,0.0,0.0,80,0.00,,,0.02,WUHU216HW,2013-09-10 00:50:00,
2013-09-09 19:55:00,75.7,69.2,29.92,North,0,0.0,0.0,80,0.00,,,0.02,WUHU216HW,2013-09-10 00:55:00,
2013-09-09 20:25:00,74.4,68.6,29.93,North,0,0.0,0.0,82,0.00,,,0.02,WUHU216HW,2013-09-10 01:25:00,
2013-09-09 21:01:00,73.5,68.4,29.94,North,0,0.0,0.0,84,0.00,,,0.02,WUHU216HW,2013-09-10 02:01:00,
2013-09-09 21:06:00,73.5,68.4,29.94,North,0,0.0,0.0,84,0.00,,,0.02,WUHU216HW,2013-09-10 02:06:00,
2013-09-09 21:14:00,73.4,68.2,29.94,North,0,0.0,0.0,84,0.00,,,0.02,WUHU216HW,2013-09-10 02:14:00,
2013-09-09 21:19:00,73.2,68.1,29.95,North,0,0.0,0.0,84,0.00,,,0.02,WUHU216HW,2013-09-10 02:19:00,
2013-09-09 21:24:00,73.2,68.1,29.95,North,0,0.0,0.0,84,0.00,,,0.02,WUHU216HW,2013-09-10 02:24:00,
2013-09-09 21:56:00,72.3,67.2,29.96,North,0,0.0,0.0,85,0.00,,,0.02,WUHU216HW,2013-09-10 02:56:00,
2013-09-09 22:08:00,72.1,67.3,29.95,North,0,0.0,0.0,85,0.00,,,0.02,WUHU216HW,2013-09-10 03:08:00,
2013-09-09 22:50:00,71.2,66.8,29.96,North,0,0.0,0.0,86,0.00,,,0.02,WUHU216HW,2013-09-10 03:50:00,
2013-09-09 22:55:00,71.2,66.8,29.96,North,0,0.0,0.0,86,0.00,,,0.02,WUHU216HW,2013-09-10 03:55:00,
2013-09-09 23:45:00,70.8,66.4,29.95,North,0,0.0,0.0,87,0.00,,,0.02,WUHU216HW,2013-09-10 04:45:00,
2013-09-09 23:56:00,70.8,66.7,29.95,North,0,0.0,0.0,87,0.00,,,0.02,WUHU216HW,2013-09-10 04:56:00,